Cameron Village, North Carolina
Current Conditions -  °F | °C
As of 10:51 AM on Tuesday 21 Oct 2014 (Local Time) from KRDU Reporting Station
Few Clouds Few Clouds  
Wind Chill: 66°   Ceiling: Unl
Heat Index: 66°   Visibility: 10mi
Dew Point: 51°   Wind: 0mph
Humidity: 59%   Direction: NA
Pressure: 29.93"   Gusts: NA
Location:  35.7907°N, 78.6542°W
Report Text: KRDU 211451Z 00000KT 10SM FEW100 19/11 A2993 RMK AO2 SLP133 T01890106 58001 $
Loading
Personal Weather Stations






























Interactive Weather Map
Tropical Storm Tracking
New forecast layout! Learn more

10-Day Weather Forecast

Advertisements
Track Severe Weather on mobile